Time;durP1;ratioP1;P1;durP2;ratioP2;P2;SDS_P1;SDS_P2;PMS_P1;PMS_P2;Temp;Humidity;BMP_temperature;BMP_pressure;BME280_temperature;BME280_humidity;BME280_pressure;Samples;Min_cycle;Max_cycle;Signal;HPM_P1;HPM_P2
2022/05/07 00:01:07;;;;;;;22.00;19.87;;;17.70;32.80;;;;;;5036561;28;20629;-82
2022/05/07 00:03:33;;;;;;;23.23;20.83;;;17.70;33.70;;;;;;5035028;28;20222;-84
2022/05/07 00:05:59;;;;;;;22.53;19.37;;;17.80;32.60;;;;;;5034555;28;20643;-85
2022/05/07 00:08:25;;;;;;;21.47;19.13;;;17.80;31.50;;;;;;5034754;28;20218;-80
2022/05/07 00:10:50;;;;;;;21.23;18.10;;;17.80;29.80;;;;;;5034513;28;20166;-85
2022/05/07 00:13:16;;;;;;;21.70;18.67;;;17.70;31.50;;;;;;5033893;28;20267;-87
2022/05/07 00:18:01;;;;;;;21.37;19.23;;;17.60;30.60;;;;;;5035484;28;20231;-84
2022/05/07 00:18:29;;;;;;;19.93;17.83;;;17.60;32.20;;;;;;5034346;28;20169;-85
2022/05/07 00:20:55;;;;;;;20.73;17.97;;;17.50;35.20;;;;;;5035010;28;20170;-86
2022/05/07 00:23:20;;;;;;;19.73;17.70;;;17.30;37.50;;;;;;5035227;28;20567;-86
2022/05/07 00:25:46;;;;;;;19.47;17.47;;;17.10;40.00;;;;;;5036049;28;20634;-85
2022/05/07 00:28:12;;;;;;;19.47;17.43;;;17.00;43.20;;;;;;5036215;28;20213;-87
2022/05/07 00:30:37;;;;;;;20.03;17.10;;;17.00;44.70;;;;;;5037276;28;20179;-82
2022/05/07 00:33:03;;;;;;;18.87;16.43;;;17.00;44.20;;;;;;5044611;28;20173;-86
2022/05/07 00:35:28;;;;;;;19.33;16.93;;;16.90;45.70;;;;;;5049170;28;20174;-87
2022/05/07 00:37:54;;;;;;;20.87;15.90;;;16.80;46.90;;;;;;5047323;28;20630;-87
2022/05/07 00:40:20;;;;;;;17.00;15.30;;;16.70;47.30;;;;;;5049023;28;20167;-86
2022/05/07 00:42:45;;;;;;;18.37;15.63;;;16.70;48.50;;;;;;5055093;28;20154;-84
2022/05/07 00:45:12;;;;;;;16.37;14.70;;;16.70;46.00;;;;;;5061106;28;20180;-82
2022/05/07 00:47:39;;;;;;;15.97;14.33;;;16.70;45.50;;;;;;5060127;28;20228;-84
2022/05/07 00:52:50;;;;;;;17.27;14.20;;;16.90;39.20;;;;;;5060842;28;20169;-85
2022/05/07 00:55:17;;;;;;;16.17;14.47;;;16.70;43.20;;;;;;5061306;28;20160;-86
2022/05/07 00:57:42;;;;;;;15.43;13.77;;;16.50;48.60;;;;;;5061597;28;20169;-83
2022/05/07 01:00:10;;;;;;;16.90;13.97;;;16.40;51.20;;;;;;5059833;28;20681;-86
2022/05/07 01:02:36;;;;;;;15.73;14.03;;;16.40;51.60;;;;;;5054549;28;20175;-85
2022/05/07 01:05:06;;;;;;;15.97;14.27;;;16.40;51.80;;;;;;5057737;28;20166;-83
2022/05/07 01:07:34;;;;;;;15.50;13.93;;;16.40;51.20;;;;;;5056092;28;20205;-86
2022/05/07 01:10:07;;;;;;;16.27;14.40;;;16.40;51.60;;;;;;5054781;28;20219;-85
2022/05/07 01:12:35;;;;;;;16.03;14.17;;;16.30;53.70;;;;;;5038815;28;20226;-86
2022/05/07 01:15:07;;;;;;;16.13;13.87;;;16.30;53.60;;;;;;5038244;28;20177;-86
2022/05/07 01:17:45;;;;;;;17.03;14.13;;;16.20;55.10;;;;;;5038764;28;20165;-85
2022/05/07 01:20:23;;;;;;;16.07;14.50;;;16.30;54.60;;;;;;5038966;28;20166;-84
2022/05/07 01:22:50;;;;;;;17.63;14.47;;;16.30;54.60;;;;;;5037901;28;20157;-86
2022/05/07 01:25:16;;;;;;;17.33;14.93;;;16.40;48.70;;;;;;5038438;28;20665;-86
2022/05/07 01:27:42;;;;;;;18.83;14.17;;;16.40;45.50;;;;;;5038446;28;20205;-85
2022/05/07 01:30:08;;;;;;;16.93;13.60;;;16.30;47.70;;;;;;5038636;28;20229;-85
2022/05/07 01:32:33;;;;;;;14.63;12.93;;;16.30;45.40;;;;;;5039026;28;20622;-85
2022/05/07 01:34:59;;;;;;;16.33;13.53;;;16.10;48.40;;;;;;5038417;28;20238;-85
2022/05/07 01:37:25;;;;;;;16.00;13.33;;;16.00;50.30;;;;;;5037868;28;20186;-85
2022/05/07 01:39:51;;;;;;;17.77;14.47;;;16.00;48.80;;;;;;5046258;28;20231;-85
2022/05/07 01:42:17;;;;;;;17.07;14.37;;;16.00;50.10;;;;;;5054714;28;20170;-84
2022/05/07 01:44:43;;;;;;;17.70;14.63;;;15.90;52.00;;;;;;5056378;28;20688;-85
2022/05/07 01:49:53;;;;;;;18.67;14.77;;;15.90;54.30;;;;;;5055367;28;20233;-85
2022/05/07 01:52:18;;;;;;;20.00;14.17;;;15.90;55.00;;;;;;5054887;28;20161;-81
2022/05/07 01:54:44;;;;;;;16.17;13.87;;;15.80;56.30;;;;;;5051566;28;20154;-84
2022/05/07 01:57:10;;;;;;;18.30;14.17;;;15.80;55.20;;;;;;5058028;28;20185;-84
2022/05/07 01:59:36;;;;;;;19.67;13.83;;;15.90;56.10;;;;;;5052561;28;20189;-84
2022/05/07 02:02:01;;;;;;;17.50;14.80;;;15.80;57.30;;;;;;5047730;28;20186;-85
2022/05/07 02:04:27;;;;;;;17.23;15.03;;;15.70;57.90;;;;;;5039116;28;20176;-84
2022/05/07 02:06:55;;;;;;;16.17;14.37;;;15.80;58.90;;;;;;5039669;28;20212;-85
2022/05/07 02:09:24;;;;;;;18.93;14.07;;;15.60;59.30;;;;;;5052493;28;20336;-81
2022/05/07 02:11:51;;;;;;;16.77;13.97;;;15.60;58.90;;;;;;5054120;28;20170;-81
2022/05/07 02:14:20;;;;;;;15.00;13.33;;;15.80;53.30;;;;;;5050516;28;20204;-82
2022/05/07 02:16:53;;;;;;;16.00;12.93;;;15.70;52.50;;;;;;5037555;28;20505;-85
2022/05/07 02:19:21;;;;;;;13.83;11.93;;;15.80;51.30;;;;;;5038834;28;20675;-85
2022/05/07 02:21:46;;;;;;;14.13;11.40;;;15.70;50.30;;;;;;5037959;28;20172;-83
2022/05/07 02:24:12;;;;;;;14.87;12.07;;;15.70;48.60;;;;;;5037814;28;20154;-86
2022/05/07 02:26:39;;;;;;;13.57;11.80;;;15.70;47.50;;;;;;5036585;28;20201;-83
2022/05/07 02:29:05;;;;;;;16.07;12.13;;;15.80;42.30;;;;;;5036099;28;20209;-84
2022/05/07 02:31:30;;;;;;;15.03;11.20;;;15.70;42.50;;;;;;5036036;28;20177;-84
2022/05/07 02:33:56;;;;;;;13.57;10.63;;;15.70;42.50;;;;;;5036090;28;20252;-80
2022/05/07 02:36:22;;;;;;;12.40;10.23;;;15.60;40.90;;;;;;5036129;28;20244;-82
2022/05/07 02:38:47;;;;;;;13.37;10.63;;;15.70;37.60;;;;;;5036434;28;20170;-86
2022/05/07 02:43:58;;;;;;;11.83;9.50;;;15.60;28.00;;;;;;5036887;28;20192;-82
2022/05/07 02:46:24;;;;;;;12.60;9.33;;;15.50;28.50;;;;;;5035507;28;20635;-85
2022/05/07 02:48:49;;;;;;;13.93;9.40;;;15.60;24.40;;;;;;5037406;28;20209;-85
2022/05/07 02:51:16;;;;;;;12.53;9.37;;;15.50;23.20;;;;;;5035910;28;20177;-85
2022/05/07 02:53:42;;;;;;;11.73;9.23;;;15.70;24.50;;;;;;5049990;28;20181;-78
2022/05/07 02:56:07;;;;;;;11.60;9.20;;;15.60;24.70;;;;;;5057274;28;20169;-78
2022/05/07 02:58:34;;;;;;;13.07;9.90;;;15.50;29.30;;;;;;5052757;28;20197;-84
2022/05/07 03:00:59;;;;;;;12.17;9.10;;;15.50;30.50;;;;;;5047416;28;20178;-79
2022/05/07 03:03:25;;;;;;;11.73;9.13;;;15.60;30.10;;;;;;5045426;28;20169;-85
2022/05/07 03:05:52;;;;;;;12.33;8.73;;;15.30;34.40;;;;;;5036153;28;20489;-78
2022/05/07 03:08:18;;;;;;;11.80;9.17;;;15.40;35.70;;;;;;5036383;28;20205;-82
2022/05/07 03:10:43;;;;;;;10.40;8.93;;;15.30;37.80;;;;;;5036653;28;20185;-83
2022/05/07 03:13:09;;;;;;;11.90;8.53;;;15.20;40.00;;;;;;5035786;28;20181;-84
2022/05/07 03:15:35;;;;;;;11.30;8.97;;;15.10;42.00;;;;;;5035700;28;20552;-84
2022/05/07 03:18:00;;;;;;;10.83;8.00;;;15.20;39.00;;;;;;5033388;28;20177;-85
2022/05/07 03:20:26;;;;;;;11.43;8.40;;;15.30;34.00;;;;;;5035842;28;20530;-85
2022/05/07 03:22:51;;;;;;;11.50;8.13;;;15.40;26.40;;;;;;5034578;28;20594;-83
2022/05/07 03:25:17;;;;;;;9.70;7.57;;;15.30;28.90;;;;;;5035661;28;20177;-85
2022/05/07 03:27:43;;;;;;;11.27;7.67;;;15.20;29.30;;;;;;5035068;28;20295;-84
2022/05/07 03:30:10;;;;;;;13.10;8.47;;;15.10;30.10;;;;;;5034626;28;20193;-85
2022/05/07 03:32:35;;;;;;;10.93;7.90;;;14.80;35.00;;;;;;5038451;28;20189;-84
2022/05/07 03:35:01;;;;;;;13.57;8.57;;;14.60;40.90;;;;;;5035185;28;20242;-84
2022/05/07 03:37:28;;;;;;;9.80;7.30;;;14.60;42.10;;;;;;5035116;28;20696;-85
2022/05/07 03:39:53;;;;;;;9.10;7.60;;;14.60;43.10;;;;;;5035219;28;20172;-85
2022/05/07 03:42:20;;;;;;;9.53;7.73;;;14.60;44.50;;;;;;5034872;28;20176;-85
2022/05/07 03:44:47;;;;;;;9.80;8.07;;;14.70;41.60;;;;;;5035054;28;20169;-83
2022/05/07 03:47:13;;;;;;;10.63;7.73;;;14.60;42.70;;;;;;5035918;28;20288;-85
2022/05/07 03:49:38;;;;;;;9.50;7.57;;;14.50;45.70;;;;;;5035377;28;20232;-82
2022/05/07 03:54:49;;;;;;;10.37;7.50;;;14.40;48.60;;;;;;5034938;28;20746;-85
2022/05/07 03:57:16;;;;;;;13.30;8.03;;;14.40;46.80;;;;;;5034758;28;20162;-86
2022/05/07 03:59:42;;;;;;;11.40;8.00;;;14.30;46.80;;;;;;5034789;28;20172;-86
2022/05/07 04:02:08;;;;;;;11.57;8.20;;;14.50;41.40;;;;;;5035258;28;20648;-85
2022/05/07 04:04:35;;;;;;;11.97;8.00;;;14.60;39.70;;;;;;5036406;28;20197;-85
2022/05/07 04:07:01;;;;;;;12.00;8.03;;;14.50;41.70;;;;;;5034552;28;20194;-86
2022/05/07 04:09:27;;;;;;;10.43;7.77;;;14.40;43.80;;;;;;5033502;28;20683;-85
2022/05/07 04:11:52;;;;;;;10.83;7.13;;;14.50;44.50;;;;;;5033534;28;20264;-85
2022/05/07 04:14:18;;;;;;;9.90;7.33;;;14.50;46.90;;;;;;5034459;28;20177;-83
2022/05/07 04:16:44;;;;;;;11.27;7.80;;;14.60;48.20;;;;;;5034632;28;20184;-85
2022/05/07 04:19:11;;;;;;;10.73;7.53;;;14.40;50.00;;;;;;5035281;28;20592;-86
2022/05/07 04:21:38;;;;;;;11.30;8.13;;;14.40;50.30;;;;;;5034753;28;20167;-84
2022/05/07 04:24:05;;;;;;;12.30;7.33;;;14.30;52.00;;;;;;5034118;28;20568;-84
2022/05/07 04:26:30;;;;;;;12.03;7.77;;;14.40;51.20;;;;;;5034573;28;20208;-85
2022/05/07 04:28:56;;;;;;;13.30;8.10;;;14.50;49.80;;;;;;5053084;28;20209;-81
2022/05/07 04:31:21;;;;;;;10.57;7.73;;;14.30;49.50;;;;;;5046940;28;20553;-84
2022/05/07 04:33:50;;;;;;;13.07;7.73;;;14.50;48.30;;;;;;5049346;28;20179;-83
2022/05/07 04:36:22;;;;;;;10.23;8.10;;;14.60;46.90;;;;;;5038687;28;20157;-80
2022/05/07 04:38:49;;;;;;;12.37;8.30;;;14.50;49.10;;;;;;5047601;28;20165;-81
2022/05/07 04:41:15;;;;;;;13.57;8.33;;;14.30;51.20;;;;;;5050135;28;20153;-81
2022/05/07 04:43:41;;;;;;;12.43;8.17;;;14.30;54.60;;;;;;5055182;28;20188;-78
2022/05/07 04:46:06;;;;;;;12.73;8.20;;;14.20;54.40;;;;;;5053911;28;20264;-80
2022/05/07 04:48:32;;;;;;;10.53;7.87;;;14.10;54.30;;;;;;5037986;28;20259;-86
2022/05/07 04:50:58;;;;;;;10.53;7.77;;;14.10;53.90;;;;;;5039619;28;20220;-85
2022/05/07 04:53:23;;;;;;;14.60;7.93;;;14.20;50.60;;;;;;5042104;28;20170;-86
2022/05/07 04:55:50;;;;;;;14.73;8.77;;;14.20;51.20;;;;;;5043591;28;20515;-83
2022/05/07 04:58:16;;;;;;;12.40;8.93;;;14.20;52.40;;;;;;5044923;28;20181;-84
2022/05/07 05:00:42;;;;;;;12.40;8.80;;;14.20;51.60;;;;;;5046238;28;20588;-81
2022/05/07 05:03:13;;;;;;;13.97;9.03;;;14.10;51.70;;;;;;5052601;28;20162;-83
2022/05/07 05:05:51;;;;;;;11.73;8.50;;;14.20;50.30;;;;;;5053106;28;20170;-84
2022/05/07 05:08:20;;;;;;;14.00;8.87;;;14.20;52.20;;;;;;5048361;28;20211;-82
2022/05/07 05:10:46;;;;;;;13.40;8.27;;;14.20;53.80;;;;;;5035975;28;20268;-86
2022/05/07 05:13:11;;;;;;;14.73;8.63;;;14.10;55.30;;;;;;5036870;28;20636;-84
2022/05/07 05:15:37;;;;;;;15.03;9.17;;;14.10;56.90;;;;;;5034901;28;20229;-85
2022/05/07 05:18:04;;;;;;;12.77;8.63;;;14.20;53.90;;;;;;5033051;28;20181;-85
2022/05/07 05:20:29;;;;;;;15.03;10.73;;;14.30;54.90;;;;;;5035487;28;20536;-86
2022/05/07 05:22:55;;;;;;;14.50;9.63;;;14.30;54.70;;;;;;5038285;28;20246;-85
2022/05/07 05:25:21;;;;;;;15.27;9.83;;;14.50;54.00;;;;;;5036257;28;20176;-85
2022/05/07 05:27:48;;;;;;;15.23;10.60;;;14.50;54.00;;;;;;5038692;28;20764;-86
2022/05/07 05:30:14;;;;;;;15.00;10.73;;;14.40;56.90;;;;;;5038292;28;20169;-86
2022/05/07 05:32:40;;;;;;;14.50;11.03;;;14.50;53.80;;;;;;5038404;28;20255;-85
2022/05/07 05:35:06;;;;;;;16.23;10.53;;;14.60;53.00;;;;;;5039302;28;20160;-86
2022/05/07 05:37:32;;;;;;;14.80;10.47;;;14.60;52.30;;;;;;5038063;28;20694;-85
2022/05/07 05:39:58;;;;;;;18.93;11.00;;;14.60;54.70;;;;;;5038097;28;20203;-86
2022/05/07 05:42:24;;;;;;;17.17;11.30;;;14.50;58.00;;;;;;5037468;28;20177;-85
2022/05/07 05:44:50;;;;;;;14.03;10.43;;;14.60;59.00;;;;;;5037943;28;20280;-86
2022/05/07 05:47:16;;;;;;;13.40;10.43;;;14.50;60.30;;;;;;5037780;28;20256;-86
2022/05/07 05:49:41;;;;;;;15.00;10.57;;;14.40;62.70;;;;;;5038347;28;20216;-85
2022/05/07 05:52:08;;;;;;;17.37;11.07;;;14.50;63.10;;;;;;5037592;28;20170;-87
2022/05/07 05:54:35;;;;;;;14.87;11.30;;;14.60;62.80;;;;;;5039471;28;20181;-85
2022/05/07 05:57:00;;;;;;;19.30;12.03;;;14.70;61.10;;;;;;5039161;28;20530;-85
2022/05/07 05:59:27;;;;;;;18.10;12.33;;;14.70;60.30;;;;;;5048484;28;20224;-85
2022/05/07 06:01:53;;;;;;;18.40;11.63;;;14.70;61.50;;;;;;5049345;28;20177;-87
2022/05/07 06:04:20;;;;;;;17.97;12.33;;;14.80;59.40;;;;;;5048713;28;20178;-84
2022/05/07 06:06:46;;;;;;;16.43;12.37;;;14.80;62.00;;;;;;5048666;28;20219;-84
2022/05/07 06:09:11;;;;;;;19.13;11.77;;;14.90;61.80;;;;;;5048389;28;20616;-84
2022/05/07 06:11:37;;;;;;;17.73;11.73;;;15.00;62.50;;;;;;5039241;28;20204;-85
2022/05/07 06:14:03;;;;;;;19.87;12.17;;;15.00;61.30;;;;;;5039222;28;20232;-86
2022/05/07 06:16:29;;;;;;;17.93;11.47;;;14.80;67.20;;;;;;5037914;28;20193;-85
2022/05/07 06:18:57;;;;;;;15.63;12.13;;;14.60;69.50;;;;;;5041042;28;20614;-85
2022/05/07 06:21:23;;;;;;;16.93;12.43;;;14.80;64.90;;;;;;5041638;28;20504;-85
2022/05/07 06:23:50;;;;;;;15.70;11.73;;;14.80;66.70;;;;;;5037795;28;20174;-87
2022/05/07 06:29:01;;;;;;;15.17;12.07;;;14.60;71.40;;;;;;5041949;28;20201;-85
2022/05/07 06:31:27;;;;;;;20.27;12.80;;;14.50;76.50;;;;;;5042213;28;20173;-83
2022/05/07 06:33:53;;;;;;;17.10;12.50;;;14.70;72.90;;;;;;5039565;28;20181;-86
2022/05/07 06:36:19;;;;;;;19.40;13.53;;;14.80;65.50;;;;;;5041355;28;20168;-79
2022/05/07 06:38:44;;;;;;;16.83;13.60;;;14.70;71.10;;;;;;5039253;28;20177;-84
2022/05/07 06:41:12;;;;;;;20.23;14.23;;;14.50;72.10;;;;;;5042899;28;20547;-82
2022/05/07 06:43:37;;;;;;;24.67;14.63;;;14.60;75.40;;;;;;5054658;28;20210;-83
2022/05/07 06:46:03;;;;;;;20.47;13.67;;;14.60;73.70;;;;;;5058548;28;20198;-83
2022/05/07 06:48:30;;;;;;;17.77;13.87;;;14.60;73.70;;;;;;5057755;28;20208;-79
2022/05/07 06:50:57;;;;;;;22.23;14.83;;;14.40;77.80;;;;;;5059129;28;20198;-80
2022/05/07 06:53:25;;;;;;;23.70;15.73;;;14.10;84.20;;;;;;5059581;28;20155;-81
2022/05/07 06:55:56;;;;;;;19.40;15.10;;;14.10;90.00;;;;;;5050288;28;20172;-86
2022/05/07 06:58:36;;;;;;;23.83;15.90;;;14.20;88.70;;;;;;5045423;28;20167;-85
2022/05/07 07:01:26;;;;;;;21.67;15.47;;;14.40;86.50;;;;;;5044350;28;20197;-80
2022/05/07 07:03:53;;;;;;;20.07;15.00;;;14.60;83.80;;;;;;5055971;28;20161;-80
2022/05/07 07:06:19;;;;;;;23.10;16.33;;;14.70;80.90;;;;;;5054686;28;20172;-84
2022/05/07 07:08:47;;;;;;;20.53;14.87;;;14.70;84.60;;;;;;5049130;28;20207;-84
2022/05/07 07:11:14;;;;;;;32.60;16.70;;;14.70;85.30;;;;;;5046691;28;20617;-81
2022/05/07 07:13:43;;;;;;;21.97;15.50;;;14.80;85.90;;;;;;5038589;28;20262;-84
2022/05/07 07:16:12;;;;;;;23.70;16.00;;;14.80;81.70;;;;;;5034328;28;20201;-81
2022/05/07 07:18:38;;;;;;;24.27;16.10;;;15.00;82.90;;;;;;5036447;28;20250;-78
2022/05/07 07:21:05;;;;;;;22.30;16.13;;;15.00;83.50;;;;;;5036393;28;20172;-79
2022/05/07 07:23:31;;;;;;;24.30;16.53;;;15.10;79.30;;;;;;5037527;28;20168;-81
2022/05/07 07:25:57;;;;;;;23.67;15.67;;;15.20;81.00;;;;;;5040408;28;20184;-81
2022/05/07 07:28:23;;;;;;;28.63;18.00;;;15.30;81.90;;;;;;5036989;28;20200;-84
2022/05/07 07:30:49;;;;;;;31.40;18.53;;;15.40;73.90;;;;;;5035048;28;20219;-82
2022/05/07 07:33:15;;;;;;;28.50;18.60;;;15.50;75.20;;;;;;5018918;28;20177;-85
2022/05/07 07:35:44;;;;;;;25.63;17.00;;;15.60;73.10;;;;;;5036992;28;20182;-85
2022/05/07 07:38:11;;;;;;;25.37;17.03;;;15.80;67.80;;;;;;5036165;28;20174;-84
2022/05/07 07:40:38;;;;;;;31.53;19.33;;;15.90;68.00;;;;;;5037832;28;20184;-82
2022/05/07 07:43:04;;;;;;;25.40;18.37;;;16.00;68.50;;;;;;5037414;28;20179;-83
2022/05/07 07:48:14;;;;;;;25.30;18.37;;;16.40;57.60;;;;;;5038658;28;20216;-81
2022/05/07 07:50:41;;;;;;;27.13;18.37;;;16.40;58.10;;;;;;5040259;28;20166;-82
2022/05/07 07:53:11;;;;;;;26.70;17.40;;;16.60;58.10;;;;;;5044614;28;20172;-84
2022/05/07 07:55:38;;;;;;;26.77;18.80;;;16.80;55.00;;;;;;5046400;28;20181;-80
2022/05/07 07:58:06;;;;;;;25.30;18.57;;;16.90;52.60;;;;;;5070309;28;20173;-84
2022/05/07 08:00:35;;;;;;;26.27;18.87;;;17.10;46.10;;;;;;5072989;28;20211;-81
2022/05/07 08:03:03;;;;;;;25.60;18.57;;;17.20;43.40;;;;;;5075829;28;20149;-84
2022/05/07 08:05:35;;;;;;;27.57;19.07;;;17.50;43.10;;;;;;5058695;28;20175;-84
2022/05/07 08:13:41;;;;;;;26.87;18.77;;;17.90;40.50;;;;;;5056751;28;20201;-84
2022/05/07 08:16:19;;;;;;;26.40;18.97;;;18.10;32.90;;;;;;5052150;28;20205;-83
2022/05/07 08:18:45;;;;;;;23.87;18.23;;;18.50;27.70;;;;;;5049728;28;20177;-85
2022/05/07 08:21:14;;;;;;;27.50;19.03;;;18.60;22.80;;;;;;5051170;28;20228;-84
2022/05/07 08:23:46;;;;;;;28.13;19.13;;;19.00;19.20;;;;;;5048236;28;20415;-81
2022/05/07 08:26:15;;;;;;;27.87;19.10;;;18.80;11.80;;;;;;5038983;28;20173;-83
2022/05/07 08:28:52;;;;;;;24.23;17.87;;;18.80;11.50;;;;;;5038186;28;20217;-84
2022/05/07 08:31:24;;;;;;;29.23;18.47;;;19.00;3.10;;;;;;5038721;28;20587;-84
2022/05/07 08:33:51;;;;;;;25.90;18.47;;;18.90;1.00;;;;;;5039130;28;20165;-82
2022/05/07 08:36:17;;;;;;;23.37;18.17;;;18.90;1.00;;;;;;5036647;28;20178;-83
2022/05/07 08:38:43;;;;;;;26.27;18.70;;;19.00;1.40;;;;;;5038119;28;20170;-84
2022/05/07 08:41:12;;;;;;;25.47;17.53;;;19.00;1.70;;;;;;5036700;28;20620;-84
2022/05/07 08:43:41;;;;;;;25.37;18.10;;;19.00;1.00;;;;;;5038322;28;20182;-85
2022/05/07 08:46:16;;;;;;;26.10;18.03;;;19.00;1.00;;;;;;5035104;28;20627;-84
2022/05/07 08:48:43;;;;;;;23.77;17.37;;;19.10;1.00;;;;;;5033355;28;20216;-83
2022/05/07 08:51:09;;;;;;;23.37;17.70;;;19.30;1.00;;;;;;5032603;28;20182;-83
2022/05/07 08:53:35;;;;;;;25.03;18.33;;;19.30;1.00;;;;;;5035610;28;20182;-81
2022/05/07 08:56:02;;;;;;;24.10;17.00;;;19.10;1.00;;;;;;5035275;28;20180;-81
2022/05/07 08:58:28;;;;;;;28.83;17.83;;;19.00;1.00;;;;;;5038232;28;20206;-81
2022/05/07 09:00:54;;;;;;;24.30;16.80;;;18.90;1.00;;;;;;5038335;28;20166;-81
2022/05/07 09:03:19;;;;;;;24.60;17.90;;;19.00;1.00;;;;;;5026621;28;20535;-83
2022/05/07 09:05:45;;;;;;;22.77;17.50;;;19.20;1.00;;;;;;5045226;28;20623;-80
2022/05/07 09:08:12;;;;;;;28.17;18.00;;;19.30;1.00;;;;;;5044261;28;20214;-81
2022/05/07 09:10:40;;;;;;;23.50;17.17;;;19.50;1.00;;;;;;5043445;28;20268;-81
2022/05/07 09:13:17;;;;;;;25.47;17.17;;;19.60;1.00;;;;;;5044160;28;20201;-80
2022/05/07 09:15:57;;;;;;;24.73;17.30;;;19.50;1.00;;;;;;5027729;28;20612;-83
2022/05/07 09:18:24;;;;;;;24.97;15.87;;;19.60;1.00;;;;;;5024041;28;20169;-82
2022/05/07 09:21:16;;;;;;;23.17;16.57;;;19.70;1.00;;;;;;5047235;28;20190;-82
2022/05/07 09:23:58;;;;;;;26.27;17.07;;;19.50;1.00;;;;;;5035739;28;20173;-84
2022/05/07 09:26:24;;;;;;;23.00;16.40;;;19.70;1.00;;;;;;5024021;28;20490;-83
2022/05/07 09:28:50;;;;;;;24.57;16.93;;;19.90;1.00;;;;;;5039179;28;20208;-84
2022/05/07 09:31:32;;;;;;;23.60;16.70;;;20.20;1.00;;;;;;5058369;28;20191;-83
2022/05/07 09:35:47;;;;;;;23.17;16.77;;;20.50;1.00;;;;;;5027038;28;20177;-81
2022/05/07 09:36:45;;;;;;;23.40;17.10;;;20.70;1.00;;;;;;5023796;28;20154;-82
2022/05/07 09:39:13;;;;;;;24.40;16.63;;;20.40;1.00;;;;;;5032856;28;20239;-83
2022/05/07 09:41:43;;;;;;;23.27;16.53;;;20.10;1.00;;;;;;5026651;28;20157;-82
2022/05/07 09:44:12;;;;;;;21.67;16.10;;;19.70;1.00;;;;;;5042828;28;20184;-83
2022/05/07 09:46:39;;;;;;;24.27;17.33;;;19.60;1.00;;;;;;5031643;28;20695;-83
2022/05/07 09:49:05;;;;;;;22.17;16.20;;;19.40;1.00;;;;;;5027409;28;20296;-82
2022/05/07 09:51:32;;;;;;;24.77;16.43;;;19.40;1.00;;;;;;5031600;28;20179;-84
2022/05/07 09:59:31;;;;;;;23.87;16.23;;;19.10;1.00;;;;;;5030301;28;20177;-83
2022/05/07 10:02:03;;;;;;;20.70;15.10;;;19.20;1.00;;;;;;5031226;28;20210;-83
2022/05/07 10:04:48;;;;;;;23.03;14.77;;;19.30;1.00;;;;;;5032280;28;20233;-83
2022/05/07 10:07:43;;;;;;;20.13;14.13;;;19.40;1.00;;;;;;5033900;28;20214;-83
2022/05/07 10:10:27;;;;;;;24.20;16.63;;;19.70;1.00;;;;;;5030386;28;20278;-82
2022/05/07 10:12:57;;;;;;;22.80;16.90;;;19.60;1.00;;;;;;5041916;28;20178;-82
2022/05/07 10:15:24;;;;;;;20.87;15.23;;;19.60;1.00;;;;;;5032431;28;20241;-83
2022/05/07 10:18:07;;;;;;;22.10;14.40;;;19.60;1.00;;;;;;5029787;28;20677;-82
2022/05/07 10:20:39;;;;;;;19.27;13.43;;;19.70;1.00;;;;;;5031420;28;20209;-83
2022/05/07 10:23:07;;;;;;;24.10;16.03;;;19.70;1.00;;;;;;5048477;28;20252;-82
2022/05/07 10:25:33;;;;;;;20.20;13.90;;;19.60;1.00;;;;;;5027469;28;20189;-81
2022/05/07 10:28:08;;;;;;;19.83;14.97;;;19.40;1.00;;;;;;5044487;28;20249;-81
2022/05/07 10:30:48;;;;;;;21.73;16.20;;;19.60;1.00;;;;;;5049200;28;20272;-81
2022/05/07 10:33:14;;;;;;;20.33;15.03;;;19.70;1.00;;;;;;5031616;28;20174;-82
2022/05/07 10:35:44;;;;;;;19.23;14.43;;;19.70;1.00;;;;;;5047411;28;20518;-82
2022/05/07 10:38:13;;;;;;;21.17;16.37;;;19.60;1.00;;;;;;5032638;28;20265;-82
2022/05/07 10:41:04;;;;;;;28.63;17.50;;;19.80;1.00;;;;;;5037329;28;20233;-83
2022/05/07 10:43:35;;;;;;;21.00;16.27;;;19.60;1.00;;;;;;5036212;28;20182;-82
2022/05/07 10:46:08;;;;;;;21.80;17.10;;;19.50;1.00;;;;;;5037717;28;20766;-82
2022/05/07 10:48:53;;;;;;;24.13;17.53;;;19.50;1.00;;;;;;5030397;28;20213;-81
2022/05/07 10:51:35;;;;;;;21.37;16.37;;;19.60;1.00;;;;;;5030635;28;20171;-81
2022/05/07 10:54:16;;;;;;;23.77;17.17;;;19.90;1.00;;;;;;5032429;28;20188;-83
2022/05/07 10:56:47;;;;;;;22.83;17.23;;;20.00;1.00;;;;;;5031396;28;20186;-82
2022/05/07 10:59:14;;;;;;;22.17;17.27;;;20.00;1.00;;;;;;5034253;28;20189;-82
2022/05/07 11:01:40;;;;;;;22.27;16.43;;;19.90;1.00;;;;;;5028271;28;20262;-84
2022/05/07 11:04:08;;;;;;;21.77;18.13;;;19.80;1.00;;;;;;5043814;28;20174;-83
2022/05/07 11:06:40;;;;;;;25.70;17.40;;;20.00;1.00;;;;;;5048454;28;20187;-83
2022/05/07 11:09:06;;;;;;;21.63;17.07;;;20.20;1.00;;;;;;5033447;28;20226;-83
2022/05/07 11:11:44;;;;;;;22.00;17.27;;;20.40;1.00;;;;;;5032406;28;20277;-83
2022/05/07 11:14:10;;;;;;;21.87;15.97;;;20.50;1.00;;;;;;5033928;28;20173;-82
2022/05/07 11:16:41;;;;;;;20.47;16.47;;;20.50;1.00;;;;;;5034748;28;20195;-83
2022/05/07 11:19:07;;;;;;;21.60;16.33;;;20.60;1.00;;;;;;5050925;28;20173;-84
2022/05/07 11:21:37;;;;;;;24.83;16.30;;;20.70;1.00;;;;;;5032081;28;20199;-82
2022/05/07 11:24:02;;;;;;;21.70;16.93;;;20.70;1.00;;;;;;5048720;28;20219;-81
2022/05/07 11:26:28;;;;;;;20.70;14.83;;;20.90;1.00;;;;;;5030136;28;20184;-82
2022/05/07 11:28:55;;;;;;;17.77;12.93;;;21.00;1.00;;;;;;5059963;28;20235;-79
2022/05/07 11:31:28;;;;;;;15.90;11.80;;;21.10;1.00;;;;;;5046582;28;20175;-81
2022/05/07 11:34:08;;;;;;;20.20;13.20;;;21.10;1.00;;;;;;5046991;28;20244;-83
2022/05/07 11:36:37;;;;;;;17.73;14.13;;;20.90;1.00;;;;;;5042917;28;20178;-81
2022/05/07 11:39:05;;;;;;;17.33;13.63;;;20.80;1.00;;;;;;5040439;28;20274;-83
2022/05/07 11:41:32;;;;;;;16.77;13.53;;;20.90;1.00;;;;;;5030815;28;20721;-82
2022/05/07 11:46:54;;;;;;;16.00;12.83;;;21.20;1.00;;;;;;5029392;28;20160;-80
2022/05/07 11:49:36;;;;;;;15.47;13.03;;;21.10;1.00;;;;;;5029818;28;20226;-81
2022/05/07 11:52:05;;;;;;;16.90;12.60;;;21.10;1.00;;;;;;5033970;28;20180;-82
2022/05/07 11:54:30;;;;;;;18.57;11.30;;;20.90;1.00;;;;;;5033334;28;20967;-82
2022/05/07 11:56:56;;;;;;;14.73;11.70;;;21.00;1.00;;;;;;5031515;28;20688;-82
2022/05/07 11:59:22;;;;;;;13.53;10.73;;;21.10;1.00;;;;;;5032227;28;20176;-83
2022/05/07 12:01:49;;;;;;;14.33;10.83;;;21.20;1.00;;;;;;5033846;28;20189;-81
2022/05/07 12:04:15;;;;;;;16.70;12.00;;;21.40;1.00;;;;;;5048075;28;20184;-82
2022/05/07 12:06:41;;;;;;;13.33;10.03;;;21.20;1.00;;;;;;5033308;28;20174;-81
2022/05/07 12:09:15;;;;;;;14.43;8.93;;;21.30;1.00;;;;;;5033323;28;20215;-81
2022/05/07 12:11:44;;;;;;;14.97;10.07;;;21.30;1.00;;;;;;5032752;28;20194;-81
2022/05/07 12:14:10;;;;;;;12.63;9.50;;;21.20;1.00;;;;;;5040316;28;20175;-84
2022/05/07 12:19:31;;;;;;;12.87;8.80;;;21.50;1.00;;;;;;5038460;28;20198;-83
2022/05/07 12:30:14;;;;;;;11.23;8.27;;;21.70;1.00;;;;;;5029254;28;20200;-84
2022/05/07 12:32:43;;;;;;;13.27;7.37;;;22.00;1.00;;;;;;5032217;28;20173;-83
2022/05/07 12:35:11;;;;;;;11.60;6.60;;;21.90;99.90;;;;;;5033053;28;20223;-82
2022/05/07 12:37:43;;;;;;;12.53;5.57;;;21.90;99.90;;;;;;5032121;28;20644;-81
2022/05/07 12:40:12;;;;;;;7.63;4.73;;;22.00;1.00;;;;;;5031703;28;20630;-80
2022/05/07 12:42:37;;;;;;;11.80;8.60;;;22.00;1.00;;;;;;5039426;28;20181;-81
2022/05/07 12:45:04;;;;;;;14.20;9.23;;;22.20;1.00;;;;;;5018951;28;20181;-79
2022/05/07 12:47:31;;;;;;;12.40;9.30;;;21.90;1.00;;;;;;5031785;28;20649;-82
2022/05/07 12:49:57;;;;;;;12.93;9.90;;;21.30;1.00;;;;;;5031819;28;20316;-83
2022/05/07 12:52:23;;;;;;;12.60;9.97;;;21.10;1.00;;;;;;5032598;28;20642;-82
2022/05/07 12:54:49;;;;;;;11.40;9.97;;;21.10;1.00;;;;;;5031328;28;20275;-83
2022/05/07 12:57:15;;;;;;;13.43;10.60;;;20.90;1.00;;;;;;5030284;28;20176;-81
2022/05/07 12:59:42;;;;;;;13.03;10.03;;;21.00;1.00;;;;;;5031722;28;20168;-82
2022/05/07 13:02:11;;;;;;;12.37;10.60;;;20.80;1.00;;;;;;5031746;28;20265;-81
2022/05/07 13:04:37;;;;;;;11.33;8.83;;;21.00;1.00;;;;;;5030578;28;20260;-81
2022/05/07 13:07:03;;;;;;;12.07;9.87;;;20.90;1.00;;;;;;5031002;28;20184;-82
2022/05/07 13:09:29;;;;;;;12.33;9.50;;;20.60;1.00;;;;;;5027451;28;20743;-83
2022/05/07 13:11:57;;;;;;;11.23;9.57;;;20.50;1.00;;;;;;5030810;28;20177;-80
2022/05/07 13:14:24;;;;;;;12.20;9.50;;;20.50;1.00;;;;;;5029157;28;20175;-81
2022/05/07 13:16:50;;;;;;;10.47;8.67;;;20.60;1.00;;;;;;5030633;28;20188;-83
2022/05/07 13:19:15;;;;;;;15.00;9.33;;;20.70;1.00;;;;;;5031087;28;20173;-83